Beamsville

*Note: All times are displayed in the local standard time of the station location.
**Rain - Equipment is designed to accurately record liquid precipitation; under conditions when precipitation is not in liquid form, the data displayed may not properly reflect rainfall values.

Date Max Temp
(°C)
Min Temp
(°C)
Avg Temp
(°C)
Rain (mm) Avg RH (%)
Sun, Dec 10, 2017 -1.5 -3.1 -2.4 0.0 93.8
Sat, Dec 09, 2017 1.6 -3.0 -0.5 0.0 82.8
Fri, Dec 08, 2017 -0.3 -4.3 -1.9 0.0 82.7
Thu, Dec 07, 2017 1.4 -3.7 -1.0 0.0 84.6
Wed, Dec 06, 2017 3.4 -1.2 1.2 0.0 73.9
Tue, Dec 05, 2017 11.3 0.5 7.4 8.0 90.2
Mon, Dec 04, 2017 10.6 -1.3 6.0 0.6 88.2
DateTime Avg Temp (°C) Rain (mm) RH (%)
Mon, Dec 11, 2017 02:00 -2.9 0.0 100.0
Mon, Dec 11, 2017 01:00 -2.2 0.0 98.5
Mon, Dec 11, 2017 00:00 -2.2 0.0 96.8
Sun, Dec 10, 2017 23:00 -2.7 0.0 98.3
Sun, Dec 10, 2017 22:00 -2.7 0.0 96.3
Sun, Dec 10, 2017 21:00 -2.5 0.0 95.3
Sun, Dec 10, 2017 20:00 -2.5 0.0 92.8
Sun, Dec 10, 2017 19:00 -2.4 0.0 92.5
Sun, Dec 10, 2017 18:00 -2.0 0.0 90.0
Sun, Dec 10, 2017 17:00 -1.6 0.0 86.0
Sun, Dec 10, 2017 16:00 -1.7 0.0 88.8
Sun, Dec 10, 2017 15:00 -1.5 0.0 89.8
Sun, Dec 10, 2017 14:00 -1.6 0.0 89.8
Sun, Dec 10, 2017 13:00 -1.8 0.0 92.0
Sun, Dec 10, 2017 12:00 -1.9 0.0 89.5
Sun, Dec 10, 2017 11:00 -2.2 0.0 86.8
Sun, Dec 10, 2017 10:00 -2.6 0.0 88.5
Sun, Dec 10, 2017 09:00 -2.9 0.0 90.3
Sun, Dec 10, 2017 08:00 -3.0 0.0 90.8
Sun, Dec 10, 2017 07:00 -2.9 0.0 98.3
Sun, Dec 10, 2017 06:00 -3.0 0.0 100.0
Sun, Dec 10, 2017 05:00 -2.6 0.0 100.0
Sun, Dec 10, 2017 04:00 -2.5 0.0 100.0
Sun, Dec 10, 2017 03:00 -2.5 0.0 100.0
Sun, Dec 10, 2017 02:00 -2.7 0.0 100.0
Sun, Dec 10, 2017 01:00 -2.7 0.0 100.0
Sun, Dec 10, 2017 00:00 -2.6 0.0 100.0
Sat, Dec 09, 2017 23:00 -2.8 0.0 100.0
Sat, Dec 09, 2017 22:00 -2.5 0.0 100.0
Sat, Dec 09, 2017 21:00 -2.0 0.0 100.0
Sat, Dec 09, 2017 20:00 -1.2 0.0 97.5
Sat, Dec 09, 2017 19:00 -0.3 0.0 83.5
Sat, Dec 09, 2017 18:00 -0.3 0.0 79.3
Sat, Dec 09, 2017 17:00 0.0 0.0 77.5
Sat, Dec 09, 2017 16:00 0.8 0.0 73.3
Sat, Dec 09, 2017 15:00 0.9 0.0 71.3
Sat, Dec 09, 2017 14:00 1.2 0.0 70.0
Sat, Dec 09, 2017 13:00 0.7 0.0 73.8
Sat, Dec 09, 2017 12:00 1.2 0.0 68.5
Sat, Dec 09, 2017 11:00 1.1 0.0 69.8
Sat, Dec 09, 2017 10:00 0.5 0.0 80.8
Sat, Dec 09, 2017 09:00 -0.9 0.0 92.0
Sat, Dec 09, 2017 08:00 -0.5 0.0 92.8
Sat, Dec 09, 2017 07:00 -0.2 0.0 95.0
Sat, Dec 09, 2017 06:00 -0.7 0.0 85.3
Sat, Dec 09, 2017 05:00 -1.1 0.0 77.8
Sat, Dec 09, 2017 04:00 -1.2 0.0 78.8
Sat, Dec 09, 2017 03:00 -1.0 0.0 73.3


asterix Register now to access more data! asterix